sensor_id;sensor_type;location;lat;lon;timestamp;pressure;altitude;pressure_sealevel;temperature;humidity
34696;BME280;20918;51.138;17.370;2023-03-16T00:05:14;100567.41;;;-1.97;77.48
34696;BME280;20918;51.138;17.370;2023-03-16T00:11:53;100567.55;;;-2.11;77.21
34696;BME280;20918;51.138;17.370;2023-03-16T00:15:14;100580.91;;;-2.14;77.17
34696;BME280;20918;51.138;17.370;2023-03-16T00:18:18;100582.70;;;-2.19;77.20
34696;BME280;20918;51.138;17.370;2023-03-16T00:21:31;100587.73;;;-2.23;77.29
34696;BME280;20918;51.138;17.370;2023-03-16T00:24:34;100592.30;;;-2.28;77.05
34696;BME280;20918;51.138;17.370;2023-03-16T00:31:16;100591.27;;;-2.32;77.60
34696;BME280;20918;51.138;17.370;2023-03-16T00:38:00;100589.51;;;-2.35;77.41
34696;BME280;20918;51.138;17.370;2023-03-16T00:41:02;100589.58;;;-2.36;77.23
34696;BME280;20918;51.138;17.370;2023-03-16T00:44:07;100593.31;;;-2.35;77.56
34696;BME280;20918;51.138;17.370;2023-03-16T00:50:22;100599.05;;;-2.35;77.29
34696;BME280;20918;51.138;17.370;2023-03-16T00:53:25;100601.38;;;-2.37;77.84
34696;BME280;20918;51.138;17.370;2023-03-16T00:56:29;100605.57;;;-2.34;78.04
34696;BME280;20918;51.138;17.370;2023-03-16T00:59:29;100607.58;;;-2.28;78.27
34696;BME280;20918;51.138;17.370;2023-03-16T01:02:30;100606.85;;;-2.24;78.13
34696;BME280;20918;51.138;17.370;2023-03-16T01:08:51;100613.47;;;-2.25;77.93
34696;BME280;20918;51.138;17.370;2023-03-16T01:12:24;100615.36;;;-2.24;78.22
34696;BME280;20918;51.138;17.370;2023-03-16T01:15:33;100610.77;;;-2.22;78.24
34696;BME280;20918;51.138;17.370;2023-03-16T01:18:34;100610.64;;;-2.23;78.34
34696;BME280;20918;51.138;17.370;2023-03-16T01:21:37;100615.31;;;-2.23;78.15
34696;BME280;20918;51.138;17.370;2023-03-16T01:24:43;100615.75;;;-2.26;78.30
34696;BME280;20918;51.138;17.370;2023-03-16T01:27:46;100628.31;;;-2.27;77.93
34696;BME280;20918;51.138;17.370;2023-03-16T01:30:47;100627.35;;;-2.29;78.04
34696;BME280;20918;51.138;17.370;2023-03-16T01:33:51;100634.77;;;-2.32;78.00
34696;BME280;20918;51.138;17.370;2023-03-16T01:37:16;100630.97;;;-2.36;77.99
34696;BME280;20918;51.138;17.370;2023-03-16T01:40:28;100630.20;;;-2.38;78.10
34696;BME280;20918;51.138;17.370;2023-03-16T01:43:32;100636.03;;;-2.40;78.30
34696;BME280;20918;51.138;17.370;2023-03-16T01:46:34;100638.38;;;-2.42;78.17
34696;BME280;20918;51.138;17.370;2023-03-16T01:49:35;100639.77;;;-2.42;78.55
34696;BME280;20918;51.138;17.370;2023-03-16T01:52:37;100642.38;;;-2.42;78.58
34696;BME280;20918;51.138;17.370;2023-03-16T01:55:44;100643.65;;;-2.44;78.73
34696;BME280;20918;51.138;17.370;2023-03-16T01:58:48;100645.09;;;-2.45;78.94
34696;BME280;20918;51.138;17.370;2023-03-16T02:01:53;100648.73;;;-2.49;78.74
34696;BME280;20918;51.138;17.370;2023-03-16T02:05:00;100652.63;;;-2.51;78.97
34696;BME280;20918;51.138;17.370;2023-03-16T02:08:04;100649.64;;;-2.50;79.05
34696;BME280;20918;51.138;17.370;2023-03-16T02:11:47;100652.33;;;-2.44;79.23
34696;BME280;20918;51.138;17.370;2023-03-16T02:15:16;100658.77;;;-2.41;79.25
34696;BME280;20918;51.138;17.370;2023-03-16T02:22:01;100660.67;;;-2.45;79.26
34696;BME280;20918;51.138;17.370;2023-03-16T02:25:06;100660.64;;;-2.47;79.36
34696;BME280;20918;51.138;17.370;2023-03-16T02:32:01;100668.16;;;-2.49;79.06
34696;BME280;20918;51.138;17.370;2023-03-16T02:35:10;100667.85;;;-2.51;79.49
34696;BME280;20918;51.138;17.370;2023-03-16T02:46:06;100675.41;;;-2.45;80.01
34696;BME280;20918;51.138;17.370;2023-03-16T02:49:16;100676.73;;;-2.43;80.09
34696;BME280;20918;51.138;17.370;2023-03-16T02:55:52;100679.96;;;-2.42;80.19
34696;BME280;20918;51.138;17.370;2023-03-16T02:58:53;100676.19;;;-2.43;80.34
34696;BME280;20918;51.138;17.370;2023-03-16T03:02:01;100679.88;;;-2.44;80.48
34696;BME280;20918;51.138;17.370;2023-03-16T03:05:36;100678.09;;;-2.43;80.48
34696;BME280;20918;51.138;17.370;2023-03-16T03:08:58;100684.82;;;-2.42;80.38
34696;BME280;20918;51.138;17.370;2023-03-16T03:12:26;100688.23;;;-2.41;80.48
34696;BME280;20918;51.138;17.370;2023-03-16T03:15:28;100691.09;;;-2.43;80.48
34696;BME280;20918;51.138;17.370;2023-03-16T03:18:38;100692.71;;;-2.44;80.45
34696;BME280;20918;51.138;17.370;2023-03-16T03:21:40;100700.63;;;-2.47;80.60
34696;BME280;20918;51.138;17.370;2023-03-16T03:28:31;100699.55;;;-2.50;80.64
34696;BME280;20918;51.138;17.370;2023-03-16T03:31:34;100700.26;;;-2.50;80.44
34696;BME280;20918;51.138;17.370;2023-03-16T03:42:04;100710.81;;;-2.54;80.64
34696;BME280;20918;51.138;17.370;2023-03-16T03:45:17;100712.23;;;-2.55;80.76
34696;BME280;20918;51.138;17.370;2023-03-16T03:48:38;100710.64;;;-2.54;80.86
34696;BME280;20918;51.138;17.370;2023-03-16T03:51:42;100712.45;;;-2.56;80.65
34696;BME280;20918;51.138;17.370;2023-03-16T03:55:19;100718.34;;;-2.56;80.70
34696;BME280;20918;51.138;17.370;2023-03-16T03:58:37;100726.95;;;-2.58;80.82
34696;BME280;20918;51.138;17.370;2023-03-16T04:02:18;100727.14;;;-2.63;80.93
34696;BME280;20918;51.138;17.370;2023-03-16T04:05:39;100727.12;;;-2.62;80.98
34696;BME280;20918;51.138;17.370;2023-03-16T04:08:59;100726.56;;;-2.61;81.31
34696;BME280;20918;51.138;17.370;2023-03-16T04:12:03;100723.40;;;-2.60;81.21
34696;BME280;20918;51.138;17.370;2023-03-16T04:26:25;100733.14;;;-2.65;81.42
34696;BME280;20918;51.138;17.370;2023-03-16T04:29:39;100736.73;;;-2.63;81.35
34696;BME280;20918;51.138;17.370;2023-03-16T04:32:51;100739.12;;;-2.63;81.43
34696;BME280;20918;51.138;17.370;2023-03-16T04:39:32;100739.80;;;-2.67;81.48
34696;BME280;20918;51.138;17.370;2023-03-16T04:42:37;100741.84;;;-2.66;81.46
34696;BME280;20918;51.138;17.370;2023-03-16T04:45:41;100746.83;;;-2.65;81.50
34696;BME280;20918;51.138;17.370;2023-03-16T04:48:42;100746.73;;;-2.67;81.39
34696;BME280;20918;51.138;17.370;2023-03-16T04:51:46;100752.86;;;-2.68;81.39
34696;BME280;20918;51.138;17.370;2023-03-16T04:58:32;100756.40;;;-2.66;81.17
34696;BME280;20918;51.138;17.370;2023-03-16T05:02:34;100760.51;;;-2.65;81.36
34696;BME280;20918;51.138;17.370;2023-03-16T05:05:37;100760.83;;;-2.65;81.30
34696;BME280;20918;51.138;17.370;2023-03-16T05:08:52;100765.54;;;-2.65;81.44
34696;BME280;20918;51.138;17.370;2023-03-16T05:11:55;100765.99;;;-2.64;81.42
34696;BME280;20918;51.138;17.370;2023-03-16T05:15:11;100770.24;;;-2.62;81.58
34696;BME280;20918;51.138;17.370;2023-03-16T05:18:18;100774.55;;;-2.58;81.72
34696;BME280;20918;51.138;17.370;2023-03-16T05:28:22;100781.95;;;-2.14;82.13
34696;BME280;20918;51.138;17.370;2023-03-16T05:31:31;100779.08;;;-1.92;82.25
34696;BME280;20918;51.138;17.370;2023-03-16T05:37:44;100777.29;;;-1.36;81.96
34696;BME280;20918;51.138;17.370;2023-03-16T05:44:39;100778.34;;;-0.50;81.62
34696;BME280;20918;51.138;17.370;2023-03-16T05:47:46;100778.88;;;-0.08;81.49
34696;BME280;20918;51.138;17.370;2023-03-16T05:50:46;100779.64;;;0.39;81.34
34696;BME280;20918;51.138;17.370;2023-03-16T05:57:17;100787.98;;;1.27;80.45
34696;BME280;20918;51.138;17.370;2023-03-16T06:00:19;100787.73;;;1.69;80.14
34696;BME280;20918;51.138;17.370;2023-03-16T06:03:24;100789.63;;;2.06;79.62
34696;BME280;20918;51.138;17.370;2023-03-16T06:06:49;100786.12;;;2.37;78.81
34696;BME280;20918;51.138;17.370;2023-03-16T06:09:58;100792.16;;;2.81;79.06
34696;BME280;20918;51.138;17.370;2023-03-16T06:13:22;100797.54;;;3.22;78.25
34696;BME280;20918;51.138;17.370;2023-03-16T06:16:23;100797.32;;;3.58;77.96
34696;BME280;20918;51.138;17.370;2023-03-16T06:19:26;100797.82;;;4.04;77.45
34696;BME280;20918;51.138;17.370;2023-03-16T06:22:31;100799.60;;;4.41;77.13
34696;BME280;20918;51.138;17.370;2023-03-16T06:25:41;100803.52;;;4.74;75.72
34696;BME280;20918;51.138;17.370;2023-03-16T06:28:43;100801.12;;;4.78;74.88
34696;BME280;20918;51.138;17.370;2023-03-16T06:31:44;100810.61;;;4.75;73.93
34696;BME280;20918;51.138;17.370;2023-03-16T06:34:58;100809.83;;;4.97;74.37
34696;BME280;20918;51.138;17.370;2023-03-16T06:38:25;100812.70;;;5.02;72.89
34696;BME280;20918;51.138;17.370;2023-03-16T06:44:48;100819.23;;;5.20;72.80
34696;BME280;20918;51.138;17.370;2023-03-16T06:47:54;100820.52;;;5.26;72.07
34696;BME280;20918;51.138;17.370;2023-03-16T06:50:58;100823.75;;;5.32;71.80
34696;BME280;20918;51.138;17.370;2023-03-16T06:54:03;100827.58;;;5.39;71.88
34696;BME280;20918;51.138;17.370;2023-03-16T06:57:26;100832.96;;;5.56;71.26
34696;BME280;20918;51.138;17.370;2023-03-16T07:00:26;100836.53;;;5.56;70.05
34696;BME280;20918;51.138;17.370;2023-03-16T07:03:27;100837.34;;;5.56;70.62
34696;BME280;20918;51.138;17.370;2023-03-16T07:09:42;100836.90;;;5.92;70.38
34696;BME280;20918;51.138;17.370;2023-03-16T07:16:14;100837.38;;;6.15;69.60
34696;BME280;20918;51.138;17.370;2023-03-16T07:19:14;100843.14;;;6.27;68.67
34696;BME280;20918;51.138;17.370;2023-03-16T07:22:15;100844.91;;;6.29;68.04
34696;BME280;20918;51.138;17.370;2023-03-16T07:25:19;100849.40;;;6.32;68.17
34696;BME280;20918;51.138;17.370;2023-03-16T07:28:24;100849.00;;;6.37;67.69
34696;BME280;20918;51.138;17.370;2023-03-16T07:31:38;100848.67;;;6.50;67.76
34696;BME280;20918;51.138;17.370;2023-03-16T07:35:04;100849.15;;;6.73;67.92
34696;BME280;20918;51.138;17.370;2023-03-16T07:38:05;100847.14;;;6.95;67.60
34696;BME280;20918;51.138;17.370;2023-03-16T07:41:26;100845.77;;;7.01;66.56
34696;BME280;20918;51.138;17.370;2023-03-16T07:44:27;100849.84;;;6.94;66.29
34696;BME280;20918;51.138;17.370;2023-03-16T07:47:29;100856.23;;;6.85;65.85
34696;BME280;20918;51.138;17.370;2023-03-16T07:50:32;100857.64;;;6.94;66.10
34696;BME280;20918;51.138;17.370;2023-03-16T07:56:50;100861.00;;;7.15;66.02
34696;BME280;20918;51.138;17.370;2023-03-16T08:03:24;100853.62;;;7.59;65.29
34696;BME280;20918;51.138;17.370;2023-03-16T08:06:25;100858.54;;;7.68;64.59
34696;BME280;20918;51.138;17.370;2023-03-16T08:09:27;100863.02;;;7.73;64.41
34696;BME280;20918;51.138;17.370;2023-03-16T08:12:37;100859.51;;;8.00;64.22
34696;BME280;20918;51.138;17.370;2023-03-16T08:16:01;100864.23;;;8.16;64.32
34696;BME280;20918;51.138;17.370;2023-03-16T08:19:32;100872.86;;;8.35;63.18
34696;BME280;20918;51.138;17.370;2023-03-16T08:22:34;100876.21;;;8.37;63.44
34696;BME280;20918;51.138;17.370;2023-03-16T08:25:53;100875.48;;;8.51;62.88
34696;BME280;20918;51.138;17.370;2023-03-16T08:28:55;100878.23;;;8.62;62.84
34696;BME280;20918;51.138;17.370;2023-03-16T08:31:58;100875.58;;;8.76;62.37
34696;BME280;20918;51.138;17.370;2023-03-16T08:35:05;100877.17;;;8.90;61.86
34696;BME280;20918;51.138;17.370;2023-03-16T08:42:10;100880.39;;;9.25;61.31
34696;BME280;20918;51.138;17.370;2023-03-16T08:45:35;100883.40;;;9.34;60.97
34696;BME280;20918;51.138;17.370;2023-03-16T08:48:46;100887.69;;;9.45;60.62
34696;BME280;20918;51.138;17.370;2023-03-16T08:51:50;100885.08;;;9.58;60.64
34696;BME280;20918;51.138;17.370;2023-03-16T08:54:50;100885.92;;;9.72;59.82
34696;BME280;20918;51.138;17.370;2023-03-16T08:57:51;100889.91;;;9.92;59.83
34696;BME280;20918;51.138;17.370;2023-03-16T09:01:02;100893.02;;;9.99;59.20
34696;BME280;20918;51.138;17.370;2023-03-16T09:04:04;100893.67;;;10.09;58.90
34696;BME280;20918;51.138;17.370;2023-03-16T09:07:05;100892.83;;;10.19;58.97
34696;BME280;20918;51.138;17.370;2023-03-16T09:10:06;100894.31;;;10.49;58.95
34696;BME280;20918;51.138;17.370;2023-03-16T09:13:07;100896.57;;;10.65;57.76
34696;BME280;20918;51.138;17.370;2023-03-16T09:16:08;100895.44;;;10.83;57.43
34696;BME280;20918;51.138;17.370;2023-03-16T09:19:08;100894.86;;;10.87;56.46
34696;BME280;20918;51.138;17.370;2023-03-16T09:22:11;100897.52;;;10.83;56.22
34696;BME280;20918;51.138;17.370;2023-03-16T09:25:11;100897.73;;;10.88;55.44
34696;BME280;20918;51.138;17.370;2023-03-16T09:28:12;100894.55;;;10.90;55.15
34696;BME280;20918;51.138;17.370;2023-03-16T09:31:14;100893.46;;;10.81;54.83
34696;BME280;20918;51.138;17.370;2023-03-16T09:34:16;100890.02;;;10.95;54.92
34696;BME280;20918;51.138;17.370;2023-03-16T09:37:16;100888.59;;;11.00;54.23
34696;BME280;20918;51.138;17.370;2023-03-16T09:40:24;100889.95;;;11.05;53.81
34696;BME280;20918;51.138;17.370;2023-03-16T09:46:36;100886.40;;;10.94;53.24
34696;BME280;20918;51.138;17.370;2023-03-16T09:49:42;100886.72;;;11.21;53.11
34696;BME280;20918;51.138;17.370;2023-03-16T09:53:04;100884.79;;;11.23;52.24
34696;BME280;20918;51.138;17.370;2023-03-16T09:56:13;100893.13;;;10.83;51.67
34696;BME280;20918;51.138;17.370;2023-03-16T09:59:15;100894.91;;;10.79;51.99
34696;BME280;20918;51.138;17.370;2023-03-16T10:05:25;100898.42;;;10.52;51.83
34696;BME280;20918;51.138;17.370;2023-03-16T10:08:39;100890.14;;;10.62;51.74
34696;BME280;20918;51.138;17.370;2023-03-16T10:11:41;100891.30;;;10.24;51.13
34696;BME280;20918;51.138;17.370;2023-03-16T10:20:58;100895.48;;;9.42;50.86
34696;BME280;20918;51.138;17.370;2023-03-16T10:23:59;100896.68;;;9.51;51.20
34696;BME280;20918;51.138;17.370;2023-03-16T10:27:01;100894.28;;;9.64;50.28
34696;BME280;20918;51.138;17.370;2023-03-16T10:30:09;100893.07;;;9.68;50.69
34696;BME280;20918;51.138;17.370;2023-03-16T10:36:23;100896.39;;;9.72;50.39
34696;BME280;20918;51.138;17.370;2023-03-16T10:39:34;100892.09;;;9.95;50.44
34696;BME280;20918;51.138;17.370;2023-03-16T10:42:38;100886.78;;;10.07;49.61
34696;BME280;20918;51.138;17.370;2023-03-16T10:45:41;100890.55;;;10.19;50.17
34696;BME280;20918;51.138;17.370;2023-03-16T10:48:42;100886.14;;;10.38;49.22
34696;BME280;20918;51.138;17.370;2023-03-16T10:51:51;100887.10;;;10.41;48.88
34696;BME280;20918;51.138;17.370;2023-03-16T10:54:56;100889.39;;;10.50;48.74
34696;BME280;20918;51.138;17.370;2023-03-16T10:57:57;100883.79;;;10.59;48.05
34696;BME280;20918;51.138;17.370;2023-03-16T11:00:58;100879.36;;;10.55;47.84
34696;BME280;20918;51.138;17.370;2023-03-16T11:03:59;100880.39;;;10.57;46.97
34696;BME280;20918;51.138;17.370;2023-03-16T11:07:05;100887.85;;;10.53;46.97
34696;BME280;20918;51.138;17.370;2023-03-16T11:10:16;100883.45;;;10.39;47.07
34696;BME280;20918;51.138;17.370;2023-03-16T11:13:24;100879.33;;;10.52;47.04
34696;BME280;20918;51.138;17.370;2023-03-16T11:16:29;100880.13;;;10.69;47.00
34696;BME280;20918;51.138;17.370;2023-03-16T11:19:43;100880.63;;;10.84;46.96
34696;BME280;20918;51.138;17.370;2023-03-16T11:22:47;100885.06;;;11.06;46.44
34696;BME280;20918;51.138;17.370;2023-03-16T11:25:48;100883.06;;;10.95;46.24
34696;BME280;20918;51.138;17.370;2023-03-16T11:28:52;100882.44;;;10.47;46.07
34696;BME280;20918;51.138;17.370;2023-03-16T11:32:05;100877.65;;;10.06;46.34
34696;BME280;20918;51.138;17.370;2023-03-16T11:41:27;100885.88;;;8.88;46.92
34696;BME280;20918;51.138;17.370;2023-03-16T11:44:46;100882.73;;;8.61;47.66
34696;BME280;20918;51.138;17.370;2023-03-16T11:48:02;100876.90;;;8.61;47.63
34696;BME280;20918;51.138;17.370;2023-03-16T12:00:59;100863.02;;;8.12;46.29
34696;BME280;20918;51.138;17.370;2023-03-16T12:07:11;100863.46;;;7.82;46.99
34696;BME280;20918;51.138;17.370;2023-03-16T12:10:32;100863.16;;;7.78;47.29
34696;BME280;20918;51.138;17.370;2023-03-16T12:16:47;100858.40;;;8.45;47.03
34696;BME280;20918;51.138;17.370;2023-03-16T12:19:57;100853.97;;;8.64;46.81
34696;BME280;20918;51.138;17.370;2023-03-16T12:23:07;100849.70;;;8.58;45.52
34696;BME280;20918;51.138;17.370;2023-03-16T12:26:10;100850.66;;;8.81;47.24
34696;BME280;20918;51.138;17.370;2023-03-16T12:29:18;100850.28;;;9.12;46.29
34696;BME280;20918;51.138;17.370;2023-03-16T12:32:25;100844.64;;;9.31;46.40
34696;BME280;20918;51.138;17.370;2023-03-16T12:35:44;100841.43;;;9.61;46.19
34696;BME280;20918;51.138;17.370;2023-03-16T12:41:51;100843.07;;;9.75;44.83
34696;BME280;20918;51.138;17.370;2023-03-16T12:45:02;100842.56;;;9.77;43.94
34696;BME280;20918;51.138;17.370;2023-03-16T12:51:05;100845.91;;;9.77;45.04
34696;BME280;20918;51.138;17.370;2023-03-16T12:54:16;100843.09;;;9.66;45.20
34696;BME280;20918;51.138;17.370;2023-03-16T12:57:17;100838.09;;;9.61;44.55
34696;BME280;20918;51.138;17.370;2023-03-16T13:00:19;100835.36;;;9.58;44.48
34696;BME280;20918;51.138;17.370;2023-03-16T13:03:20;100837.39;;;9.59;44.61
34696;BME280;20918;51.138;17.370;2023-03-16T13:06:28;100843.60;;;9.62;44.62
34696;BME280;20918;51.138;17.370;2023-03-16T13:09:33;100845.13;;;9.62;44.28
34696;BME280;20918;51.138;17.370;2023-03-16T13:12:36;100839.60;;;9.67;43.98
34696;BME280;20918;51.138;17.370;2023-03-16T13:15:38;100841.09;;;9.60;43.28
34696;BME280;20918;51.138;17.370;2023-03-16T13:18:39;100843.23;;;9.49;42.59
34696;BME280;20918;51.138;17.370;2023-03-16T13:22:02;100843.01;;;9.38;41.90
34696;BME280;20918;51.138;17.370;2023-03-16T13:28:25;100849.42;;;9.30;42.46
34696;BME280;20918;51.138;17.370;2023-03-16T13:31:35;100847.36;;;9.08;42.44
34696;BME280;20918;51.138;17.370;2023-03-16T13:34:37;100846.65;;;8.80;43.21
34696;BME280;20918;51.138;17.370;2023-03-16T13:37:39;100847.38;;;8.66;43.52
34696;BME280;20918;51.138;17.370;2023-03-16T13:40:45;100846.42;;;8.53;43.71
34696;BME280;20918;51.138;17.370;2023-03-16T13:43:47;100845.23;;;8.48;43.78
34696;BME280;20918;51.138;17.370;2023-03-16T13:46:47;100844.05;;;8.62;43.36
34696;BME280;20918;51.138;17.370;2023-03-16T13:49:53;100842.64;;;8.76;43.59
34696;BME280;20918;51.138;17.370;2023-03-16T13:52:58;100844.48;;;8.85;43.77
34696;BME280;20918;51.138;17.370;2023-03-16T13:55:59;100846.02;;;8.93;43.76
34696;BME280;20918;51.138;17.370;2023-03-16T13:59:03;100843.44;;;8.94;43.49
34696;BME280;20918;51.138;17.370;2023-03-16T14:02:08;100845.14;;;8.85;43.60
34696;BME280;20918;51.138;17.370;2023-03-16T14:05:16;100840.73;;;8.87;43.58
34696;BME280;20918;51.138;17.370;2023-03-16T14:08:22;100835.05;;;8.95;43.47
34696;BME280;20918;51.138;17.370;2023-03-16T14:11:24;100835.35;;;8.98;42.88
34696;BME280;20918;51.138;17.370;2023-03-16T14:17:28;100836.14;;;8.50;42.82
34696;BME280;20918;51.138;17.370;2023-03-16T14:20:29;100838.03;;;8.30;43.13
34696;BME280;20918;51.138;17.370;2023-03-16T14:23:31;100839.22;;;8.10;43.32
34696;BME280;20918;51.138;17.370;2023-03-16T14:26:40;100832.54;;;7.96;42.78
34696;BME280;20918;51.138;17.370;2023-03-16T14:30:12;100828.36;;;7.87;43.02
34696;BME280;20918;51.138;17.370;2023-03-16T14:33:25;100820.03;;;7.85;43.16
34696;BME280;20918;51.138;17.370;2023-03-16T14:36:33;100821.85;;;7.73;43.18
34696;BME280;20918;51.138;17.370;2023-03-16T14:39:34;100824.33;;;7.66;43.57
34696;BME280;20918;51.138;17.370;2023-03-16T14:42:35;100819.37;;;7.75;43.14
34696;BME280;20918;51.138;17.370;2023-03-16T14:45:41;100821.69;;;7.83;43.08
34696;BME280;20918;51.138;17.370;2023-03-16T14:48:41;100819.15;;;7.89;43.42
34696;BME280;20918;51.138;17.370;2023-03-16T14:51:43;100815.98;;;7.91;43.03
34696;BME280;20918;51.138;17.370;2023-03-16T14:54:45;100815.66;;;7.93;43.32
34696;BME280;20918;51.138;17.370;2023-03-16T14:57:45;100813.91;;;7.93;43.02
34696;BME280;20918;51.138;17.370;2023-03-16T15:00:46;100812.91;;;7.92;43.14
34696;BME280;20918;51.138;17.370;2023-03-16T15:03:48;100812.92;;;7.96;42.96
34696;BME280;20918;51.138;17.370;2023-03-16T15:06:49;100816.20;;;8.01;43.03
34696;BME280;20918;51.138;17.370;2023-03-16T15:09:50;100809.58;;;8.00;43.05
34696;BME280;20918;51.138;17.370;2023-03-16T15:12:52;100810.31;;;7.96;43.32
34696;BME280;20918;51.138;17.370;2023-03-16T15:15:56;100817.95;;;7.87;43.44
34696;BME280;20918;51.138;17.370;2023-03-16T15:18:56;100815.10;;;7.67;42.56
34696;BME280;20918;51.138;17.370;2023-03-16T15:22:02;100816.20;;;7.52;43.53
34696;BME280;20918;51.138;17.370;2023-03-16T15:25:20;100816.71;;;7.48;43.39
34696;BME280;20918;51.138;17.370;2023-03-16T15:28:22;100813.42;;;7.34;43.27
34696;BME280;20918;51.138;17.370;2023-03-16T15:31:23;100813.68;;;7.32;43.49
34696;BME280;20918;51.138;17.370;2023-03-16T15:34:27;100809.65;;;7.30;43.47
34696;BME280;20918;51.138;17.370;2023-03-16T15:37:28;100814.82;;;7.26;43.58
34696;BME280;20918;51.138;17.370;2023-03-16T15:40:31;100816.11;;;7.28;43.88
34696;BME280;20918;51.138;17.370;2023-03-16T15:43:35;100810.80;;;7.32;44.08
34696;BME280;20918;51.138;17.370;2023-03-16T15:46:36;100813.70;;;7.34;44.19
34696;BME280;20918;51.138;17.370;2023-03-16T15:49:37;100815.71;;;7.30;43.84
34696;BME280;20918;51.138;17.370;2023-03-16T15:52:38;100824.52;;;7.24;43.79
34696;BME280;20918;51.138;17.370;2023-03-16T15:55:41;100824.48;;;7.14;43.72
34696;BME280;20918;51.138;17.370;2023-03-16T15:58:43;100827.80;;;7.04;43.51
34696;BME280;20918;51.138;17.370;2023-03-16T16:01:46;100828.63;;;6.98;43.76
34696;BME280;20918;51.138;17.370;2023-03-16T16:04:47;100827.64;;;6.95;44.27
34696;BME280;20918;51.138;17.370;2023-03-16T16:07:47;100828.50;;;6.93;44.42
34696;BME280;20918;51.138;17.370;2023-03-16T16:10:48;100825.05;;;6.88;44.23
34696;BME280;20918;51.138;17.370;2023-03-16T16:13:49;100824.98;;;6.78;44.25
34696;BME280;20918;51.138;17.370;2023-03-16T16:16:52;100825.84;;;6.72;44.07
34696;BME280;20918;51.138;17.370;2023-03-16T16:19:53;100836.28;;;6.58;44.44
34696;BME280;20918;51.138;17.370;2023-03-16T16:22:55;100834.28;;;6.43;44.69
34696;BME280;20918;51.138;17.370;2023-03-16T16:26:03;100837.21;;;6.38;45.40
34696;BME280;20918;51.138;17.370;2023-03-16T16:29:16;100832.02;;;6.41;45.35
34696;BME280;20918;51.138;17.370;2023-03-16T16:32:19;100841.91;;;6.31;45.20
34696;BME280;20918;51.138;17.370;2023-03-16T16:35:22;100840.73;;;6.19;45.19
34696;BME280;20918;51.138;17.370;2023-03-16T16:38:23;100843.27;;;6.12;45.63
34696;BME280;20918;51.138;17.370;2023-03-16T16:41:26;100843.55;;;6.04;45.85
34696;BME280;20918;51.138;17.370;2023-03-16T16:44:28;100843.84;;;6.00;45.92
34696;BME280;20918;51.138;17.370;2023-03-16T16:47:32;100841.39;;;5.95;46.13
34696;BME280;20918;51.138;17.370;2023-03-16T16:50:33;100845.95;;;5.91;46.23
34696;BME280;20918;51.138;17.370;2023-03-16T16:53:34;100845.94;;;5.84;46.09
34696;BME280;20918;51.138;17.370;2023-03-16T16:56:35;100847.88;;;5.77;46.13
34696;BME280;20918;51.138;17.370;2023-03-16T16:59:36;100849.58;;;5.71;46.35
34696;BME280;20918;51.138;17.370;2023-03-16T17:02:40;100853.82;;;5.63;46.71
34696;BME280;20918;51.138;17.370;2023-03-16T17:06:02;100851.27;;;5.53;47.05
34696;BME280;20918;51.138;17.370;2023-03-16T17:09:03;100850.66;;;5.42;47.73
34696;BME280;20918;51.138;17.370;2023-03-16T17:12:08;100855.15;;;5.29;48.02
34696;BME280;20918;51.138;17.370;2023-03-16T17:15:24;100860.95;;;5.15;48.61
34696;BME280;20918;51.138;17.370;2023-03-16T17:18:25;100865.38;;;4.98;48.48
34696;BME280;20918;51.138;17.370;2023-03-16T17:21:29;100865.70;;;4.84;49.03
34696;BME280;20918;51.138;17.370;2023-03-16T17:24:30;100865.06;;;4.68;49.80
34696;BME280;20918;51.138;17.370;2023-03-16T17:27:31;100869.02;;;4.53;50.49
34696;BME280;20918;51.138;17.370;2023-03-16T17:30:32;100873.34;;;4.41;50.91
34696;BME280;20918;51.138;17.370;2023-03-16T17:33:33;100874.67;;;4.30;50.95
34696;BME280;20918;51.138;17.370;2023-03-16T17:36:33;100878.60;;;4.14;51.19
34696;BME280;20918;51.138;17.370;2023-03-16T17:39:34;100876.06;;;4.02;51.92
34696;BME280;20918;51.138;17.370;2023-03-16T17:42:36;100882.63;;;3.91;51.89
34696;BME280;20918;51.138;17.370;2023-03-16T17:45:36;100881.86;;;3.68;52.36
34696;BME280;20918;51.138;17.370;2023-03-16T17:48:37;100889.20;;;3.50;53.06
34696;BME280;20918;51.138;17.370;2023-03-16T17:51:38;100889.27;;;3.41;53.28
34696;BME280;20918;51.138;17.370;2023-03-16T17:54:38;100887.77;;;3.32;53.17
34696;BME280;20918;51.138;17.370;2023-03-16T17:57:39;100888.14;;;3.24;53.58
34696;BME280;20918;51.138;17.370;2023-03-16T18:00:42;100882.27;;;3.07;54.42
34696;BME280;20918;51.138;17.370;2023-03-16T18:03:46;100888.64;;;2.92;54.99
34696;BME280;20918;51.138;17.370;2023-03-16T18:06:46;100900.63;;;2.82;55.34
34696;BME280;20918;51.138;17.370;2023-03-16T18:09:47;100900.67;;;2.68;56.06
34696;BME280;20918;51.138;17.370;2023-03-16T18:12:49;100900.17;;;2.54;56.00
34696;BME280;20918;51.138;17.370;2023-03-16T18:16:01;100896.55;;;2.44;55.84
34696;BME280;20918;51.138;17.370;2023-03-16T18:19:10;100900.20;;;2.33;56.54
34696;BME280;20918;51.138;17.370;2023-03-16T18:22:24;100900.38;;;2.16;56.54
34696;BME280;20918;51.138;17.370;2023-03-16T18:25:35;100901.67;;;2.06;56.43
34696;BME280;20918;51.138;17.370;2023-03-16T18:28:38;100905.15;;;2.01;56.51
34696;BME280;20918;51.138;17.370;2023-03-16T18:31:39;100902.94;;;1.97;57.02
34696;BME280;20918;51.138;17.370;2023-03-16T18:34:41;100901.05;;;1.88;57.29
34696;BME280;20918;51.138;17.370;2023-03-16T18:37:42;100906.45;;;1.76;57.47
34696;BME280;20918;51.138;17.370;2023-03-16T18:40:50;100907.53;;;1.67;57.74
34696;BME280;20918;51.138;17.370;2023-03-16T18:43:54;100902.36;;;1.60;57.74
34696;BME280;20918;51.138;17.370;2023-03-16T18:47:00;100908.56;;;1.55;57.67